createdAt,value
2018-09-24T00:03:16.103Z,99720.16
2018-09-24T00:06:27.791Z,99731.32
2018-09-24T00:09:35.677Z,99736.58
2018-09-24T00:12:41.877Z,99734.28
2018-09-24T00:15:49.363Z,99738.61
2018-09-24T00:18:55.085Z,99741.62
2018-09-24T00:22:01.733Z,99752.77
2018-09-24T00:25:12.184Z,99748.09
2018-09-24T00:28:17.610Z,99753.66
2018-09-24T00:31:24.080Z,99764.55
2018-09-24T00:34:40.915Z,99770.57
2018-09-24T00:37:45.930Z,99770.48
2018-09-24T00:40:52.127Z,99771.84
2018-09-24T00:43:57.393Z,99778.44
2018-09-24T00:47:02.697Z,99793.49
2018-09-24T00:50:11.079Z,99790.05
2018-09-24T00:53:16.089Z,99796.46
2018-09-24T00:56:21.137Z,99803.70
2018-09-24T00:59:26.183Z,99801.87
2018-09-24T01:02:32.383Z,99803.71
2018-09-24T01:05:37.413Z,99804.33
2018-09-24T01:08:42.526Z,99813.30
2018-09-24T01:11:49.719Z,99829.29
2018-09-24T01:14:55.698Z,99835.42
2018-09-24T01:18:00.774Z,99842.28
2018-09-24T01:21:05.825Z,99855.60
2018-09-24T01:24:11.833Z,99855.53
2018-09-24T01:27:16.838Z,99855.16
2018-09-24T01:30:21.917Z,99861.88
2018-09-24T01:33:26.946Z,99869.41
2018-09-24T01:36:32.912Z,99872.42
2018-09-24T01:39:38.937Z,99869.41
2018-09-24T01:42:44.029Z,99869.72
2018-09-24T01:45:49.061Z,99876.27
2018-09-24T01:48:54.099Z,99887.48
2018-09-24T01:51:59.865Z,99899.94
2018-09-24T01:55:05.708Z,99906.86
2018-09-24T01:58:10.744Z,99904.35
2018-09-24T02:01:15.775Z,99905.41
2018-09-24T02:04:20.842Z,99911.02
2018-09-24T02:07:25.918Z,99914.38
2018-09-24T02:10:30.947Z,99920.92
2018-09-24T02:13:47.206Z,99927.11
2018-09-24T02:16:54.003Z,99928.39
2018-09-24T02:19:59.015Z,99933.74
2018-09-24T02:23:04.871Z,99938.97
2018-09-24T02:26:10.327Z,99940.33
2018-09-24T02:29:16.405Z,99943.03
2018-09-24T02:32:23.105Z,99959.63
2018-09-24T02:35:29.339Z,99963.26
2018-09-24T02:38:40.077Z,99972.98
2018-09-24T02:41:46.469Z,99986.05
2018-09-24T02:44:55.187Z,99989.38
2018-09-24T02:48:00.242Z,99995.72
2018-09-24T02:51:06.466Z,99994.02
2018-09-24T02:54:12.389Z,99989.27
2018-09-24T02:57:17.441Z,99997.73
2018-09-24T03:00:22.540Z,100002.13
2018-09-24T03:03:27.530Z,100003.79
2018-09-24T03:06:35.279Z,100002.30
2018-09-24T03:09:40.312Z,100006.14
2018-09-24T03:12:47.488Z,100009.17
2018-09-24T03:15:52.566Z,100012.55
2018-09-24T03:18:59.202Z,100014.81
2018-09-24T03:22:04.350Z,100016.52
2018-09-24T03:25:15.950Z,100023.47
2018-09-24T03:28:20.974Z,100023.47
2018-09-24T03:31:26.098Z,100026.97
2018-09-24T03:34:32.052Z,100035.04
2018-09-24T03:37:37.043Z,100041.91
2018-09-24T03:40:42.922Z,100041.48
2018-09-24T03:43:48.985Z,100045.16
2018-09-24T03:46:54.921Z,100051.43
2018-09-24T03:50:00.729Z,100053.56
2018-09-24T03:53:06.949Z,100053.13
2018-09-24T03:56:13.717Z,100053.22
2018-09-24T03:59:18.894Z,100053.81
2018-09-24T04:02:24.025Z,100062.02
2018-09-24T04:05:34.724Z,100071.24
2018-09-24T04:08:45.386Z,100079.00
2018-09-24T04:11:57.158Z,100078.78
2018-09-24T04:15:07.874Z,100088.76
2018-09-24T04:18:19.682Z,100095.98
2018-09-24T04:21:30.387Z,100094.49
2018-09-24T04:24:41.102Z,100091.41
2018-09-24T04:27:52.602Z,100092.69
2018-09-24T04:31:03.935Z,100107.63
2018-09-24T04:34:15.666Z,100111.78
2018-09-24T04:37:27.420Z,100129.71
2018-09-24T04:40:39.127Z,100134.66
2018-09-24T04:43:51.689Z,100132.31
2018-09-24T04:47:02.484Z,100150.96
2018-09-24T04:50:15.391Z,100146.78
2018-09-24T04:53:29.896Z,100152.28
2018-09-24T04:56:43.469Z,100152.66
2018-09-24T04:59:55.551Z,100159.44
2018-09-24T05:03:07.041Z,100166.95
2018-09-24T05:06:19.014Z,100172.45
2018-09-24T05:09:30.640Z,100172.08
2018-09-24T05:46:24.608Z,100229.41
2018-09-24T05:49:36.557Z,100228.36
2018-09-24T05:52:49.069Z,100235.83
2018-09-24T05:56:02.286Z,100235.20
2018-09-24T05:59:13.219Z,100242.64
2018-09-24T06:02:23.881Z,100248.41
2018-09-24T06:05:45.409Z,100257.69
2018-09-24T06:09:08.009Z,100271.64
2018-09-24T06:12:18.963Z,100268.33
2018-09-24T06:15:30.661Z,100272.08
2018-09-24T06:18:41.559Z,100280.25
2018-09-24T06:21:55.868Z,100281.51
2018-09-24T06:25:06.809Z,100280.66
2018-09-24T06:28:18.729Z,100287.20
2018-09-24T06:31:30.685Z,100297.55
2018-09-24T06:34:53.534Z,100298.56
2018-09-24T06:38:10.814Z,100302.55
2018-09-24T06:41:29.965Z,100306.70
2018-09-24T06:44:51.831Z,100314.57
2018-09-24T06:48:02.677Z,100320.08
2018-09-24T06:51:14.152Z,100329.28
2018-09-24T06:54:26.343Z,100331.89
2018-09-24T06:57:39.060Z,100331.69
2018-09-24T07:00:51.687Z,100339.95
2018-09-24T07:04:13.266Z,100337.55
2018-09-24T07:11:33.198Z,100343.67
2018-09-24T07:14:47.530Z,100347.20
2018-09-24T07:17:59.088Z,100356.84
2018-09-24T07:21:11.054Z,100354.06
2018-09-24T07:24:21.884Z,100359.66
2018-09-24T07:27:32.670Z,100362.83
2018-09-24T07:30:45.122Z,100374.11
2018-09-24T07:33:57.030Z,100376.75
2018-09-24T07:37:08.507Z,100382.04
2018-09-24T07:40:20.024Z,100390.28
2018-09-24T07:43:32.037Z,100390.02
2018-09-24T07:46:43.988Z,100390.73
2018-09-24T07:49:55.853Z,100396.61
2018-09-24T07:53:08.775Z,100404.59
2018-09-24T07:56:20.330Z,100406.61
2018-09-24T07:59:33.126Z,100410.59
2018-09-24T08:02:45.890Z,100421.61
2018-09-24T08:05:57.735Z,100423.02
2018-09-24T08:09:11.199Z,100430.17
2018-09-24T08:12:22.318Z,100422.97
2018-09-24T08:15:36.098Z,100428.23
2018-09-24T08:18:47.014Z,100426.14
2018-09-24T08:21:58.014Z,100429.37
2018-09-24T08:25:08.771Z,100433.87
2018-09-24T08:28:20.748Z,100442.73
2018-09-24T08:31:31.456Z,100440.52
2018-09-24T08:34:42.982Z,100447.06
2018-09-24T08:37:56.622Z,100454.69
2018-09-24T08:41:07.536Z,100448.98
2018-09-24T08:44:19.540Z,100452.50
2018-09-24T08:47:30.370Z,100451.48
2018-09-24T08:50:41.218Z,100452.23
2018-09-24T08:53:54.653Z,100456.08
2018-09-24T08:57:06.605Z,100448.09
2018-09-24T09:00:18.551Z,100455.45
2018-09-24T09:03:30.548Z,100451.42
2018-09-24T09:06:41.422Z,100455.27
2018-09-24T09:09:52.286Z,100455.64
2018-09-24T09:13:04.190Z,100444.95
2018-09-24T09:16:16.270Z,100451.74
2018-09-24T09:19:27.141Z,100462.88
2018-09-24T09:22:38.735Z,100463.73
2018-09-24T09:25:49.605Z,100456.58
2018-09-24T09:29:01.290Z,100467.23
2018-09-24T09:32:13.621Z,100448.46
2018-09-24T09:35:24.401Z,100453.38
2018-09-24T09:38:35.851Z,100457.95
2018-09-24T09:41:47.727Z,100458.54
2018-09-24T09:45:00.441Z,100450.66
2018-09-24T09:48:11.273Z,100452.34
2018-09-24T09:51:23.042Z,100446.02
2018-09-24T09:54:34.634Z,100456.34
2018-09-24T09:57:45.317Z,100460.39
2018-09-24T10:00:56.970Z,100458.06
2018-09-24T10:04:09.792Z,100458.82
2018-09-24T10:07:22.409Z,100463.34
2018-09-24T10:10:33.514Z,100456.88
2018-09-24T10:13:45.725Z,100459.70
2018-09-24T10:16:56.908Z,100459.94
2018-09-24T10:20:08.723Z,100462.49
2018-09-24T10:23:22.363Z,100473.31
2018-09-24T10:26:35.083Z,100476.81
2018-09-24T10:29:47.118Z,100470.59
2018-09-24T10:32:59.249Z,100470.33
2018-09-24T10:36:10.965Z,100463.05
2018-09-24T10:39:22.882Z,100466.62
2018-09-24T10:42:37.297Z,100460.13
2018-09-24T10:45:49.046Z,100473.27
2018-09-24T10:49:00.547Z,100468.59
2018-09-24T10:52:12.124Z,100469.61
2018-09-24T10:55:23.107Z,100470.77
2018-09-24T10:58:35.131Z,100470.22
2018-09-24T11:01:46.750Z,100461.91
2018-09-24T11:04:58.525Z,100470.91
2018-09-24T11:08:10.677Z,100456.45
2018-09-24T11:11:21.363Z,100453.89
2018-09-24T11:14:32.254Z,100457.61
2018-09-24T11:17:43.950Z,100459.19
2018-09-24T11:20:55.569Z,100460.91
2018-09-24T11:24:06.605Z,100452.98
2018-09-24T11:27:17.604Z,100455.23
2018-09-24T11:30:28.456Z,100452.06
2018-09-24T11:33:41.069Z,100453.23
2018-09-24T11:36:52.510Z,100458.98
2018-09-24T11:40:04.456Z,100470.77
2018-09-24T11:43:15.162Z,100462.05
2018-09-24T11:46:26.694Z,100461.80
2018-09-24T11:49:37.368Z,100454.02
2018-09-24T11:52:49.208Z,100451.34
2018-09-24T11:56:00.038Z,100445.36
2018-09-24T11:59:10.928Z,100446.52
2018-09-24T12:02:21.631Z,100441.40
2018-09-24T12:05:32.978Z,100424.88
2018-09-24T12:08:43.567Z,100431.35
2018-09-24T12:15:03.559Z,100432.45
2018-09-24T12:18:15.055Z,100429.57
2018-09-24T12:21:26.537Z,100429.21
2018-09-24T12:24:38.799Z,100417.81
2018-09-24T12:28:04.407Z,100410.96
2018-09-24T12:31:34.338Z,100409.94
2018-09-24T12:34:48.695Z,100428.09
2018-09-24T12:38:06.590Z,100413.16
2018-09-24T12:41:18.074Z,100413.22
2018-09-24T12:44:31.962Z,100411.00
2018-09-24T12:47:51.206Z,100419.94
2018-09-24T12:51:11.921Z,100424.75
2018-09-24T12:54:28.012Z,100420.58
2018-09-24T12:57:46.676Z,100420.21
2018-09-24T13:00:59.812Z,100422.17
2018-09-24T13:04:12.426Z,100425.95
2018-09-24T13:07:33.641Z,100425.96
2018-09-24T13:10:45.140Z,100416.61
2018-09-24T13:14:00.670Z,100424.70
2018-09-24T13:17:12.158Z,100419.57
2018-09-24T13:20:24.159Z,100412.10
2018-09-24T13:23:36.598Z,100404.77
2018-09-24T13:26:53.888Z,100397.84
2018-09-24T13:30:09.942Z,100403.75
2018-09-24T13:33:25.235Z,100417.83
2018-09-24T13:36:45.294Z,100422.67
2018-09-24T13:40:06.106Z,100416.63
2018-09-24T13:43:23.255Z,100420.44
2018-09-24T13:46:45.434Z,100418.98
2018-09-24T13:50:09.803Z,100416.84
2018-09-24T13:53:27.867Z,100423.59
2018-09-24T13:56:53.380Z,100418.75
2018-09-24T14:00:15.624Z,100420.36
2018-09-24T14:03:33.433Z,100408.97
2018-09-24T14:07:00.928Z,100416.52
2018-09-24T14:10:19.603Z,100417.31
2018-09-24T14:13:34.495Z,100407.42
2018-09-24T14:16:53.424Z,100405.16
2018-09-24T14:20:15.473Z,100403.53
2018-09-24T14:23:31.526Z,100400.39
2018-09-24T14:26:47.217Z,100407.76
2018-09-24T14:30:06.052Z,100411.08
2018-09-24T14:33:17.335Z,100405.84
2018-09-24T14:36:32.465Z,100409.28
2018-09-24T14:39:46.338Z,100404.72
2018-09-24T14:43:01.671Z,100406.28
2018-09-24T14:46:14.862Z,100396.98
2018-09-24T14:49:29.615Z,100406.16
2018-09-24T14:52:47.342Z,100407.67
2018-09-24T14:56:01.045Z,100407.90
2018-09-24T14:59:13.808Z,100404.72
2018-09-24T15:02:25.636Z,100414.70
2018-09-24T15:05:38.082Z,100408.70
2018-09-24T15:08:57.759Z,100409.38
2018-09-24T15:12:11.552Z,100406.62
2018-09-24T15:15:25.753Z,100403.73
2018-09-24T15:18:40.818Z,100403.21
2018-09-24T15:21:55.559Z,100410.56
2018-09-24T15:25:09.582Z,100407.84
2018-09-24T15:28:22.443Z,100408.88
2018-09-24T15:31:34.098Z,100407.66
2018-09-24T15:34:44.914Z,100409.82
2018-09-24T15:37:56.873Z,100409.42
2018-09-24T15:41:07.766Z,100409.68
2018-09-24T15:44:20.062Z,100404.98
2018-09-24T15:47:31.724Z,100400.17
2018-09-24T15:50:43.314Z,100399.87
2018-09-24T15:53:55.155Z,100404.95
2018-09-24T15:57:06.154Z,100402.03
2018-09-24T16:00:17.129Z,100399.00
2018-09-24T16:03:28.350Z,100408.75
2018-09-24T16:06:42.191Z,100416.89
2018-09-24T16:09:56.028Z,100412.14
2018-09-24T16:13:09.233Z,100409.02
2018-09-24T16:16:23.372Z,100412.89
2018-09-24T16:19:37.934Z,100418.58
2018-09-24T16:22:50.599Z,100413.80
2018-09-24T16:26:05.431Z,100416.85
2018-09-24T16:29:18.145Z,100419.04
2018-09-24T16:35:52.187Z,100429.02
2018-09-24T16:39:08.108Z,100431.83
2018-09-24T16:42:24.697Z,100432.39
2018-09-24T16:45:39.789Z,100442.98
2018-09-24T16:48:53.435Z,100446.00
2018-09-24T16:52:11.923Z,100450.13
2018-09-24T16:55:25.617Z,100463.48
2018-09-24T16:58:37.495Z,100462.41
2018-09-24T17:01:50.266Z,100470.05
2018-09-24T17:05:04.827Z,100473.59
2018-09-24T17:08:22.348Z,100474.09
2018-09-24T17:11:34.958Z,100479.73
2018-09-24T17:14:47.250Z,100490.47
2018-09-24T17:17:59.444Z,100492.19
2018-09-24T17:21:12.134Z,100492.61
2018-09-24T17:24:24.095Z,100494.99
2018-09-24T17:27:34.853Z,100497.91
2018-09-24T17:30:46.275Z,100494.36
2018-09-24T17:33:57.820Z,100497.39
2018-09-24T17:37:09.800Z,100506.20
2018-09-24T17:40:20.860Z,100507.67
2018-09-24T17:43:31.716Z,100515.58
2018-09-24T17:46:44.238Z,100517.03
2018-09-24T17:49:55.183Z,100521.84
2018-09-24T17:53:06.891Z,100524.81
2018-09-24T17:56:19.435Z,100529.81
2018-09-24T17:59:31.355Z,100536.34
2018-09-24T18:02:43.120Z,100542.98
2018-09-24T18:05:54.580Z,100547.66
2018-09-24T18:09:06.015Z,100558.02
2018-09-24T18:12:16.787Z,100559.41
2018-09-24T18:15:28.837Z,100563.76
2018-09-24T18:18:40.604Z,100567.28
2018-09-24T18:21:51.430Z,100574.13
2018-09-24T18:25:03.038Z,100574.98
2018-09-24T18:28:15.000Z,100584.91
2018-09-24T18:31:26.593Z,100583.23
2018-09-24T18:34:38.278Z,100591.30
2018-09-24T18:37:51.460Z,100598.73
2018-09-24T18:41:08.969Z,100605.64
2018-09-24T18:44:29.663Z,100604.25
2018-09-24T18:47:40.447Z,100613.34
2018-09-24T18:50:52.193Z,100615.02
2018-09-24T18:54:03.863Z,100621.32
2018-09-24T18:57:15.880Z,100620.14
2018-09-24T19:00:27.658Z,100627.08
2018-09-24T19:03:39.205Z,100631.28
2018-09-24T19:06:49.837Z,100632.16
2018-09-24T19:10:00.522Z,100638.09
2018-09-24T19:13:11.442Z,100643.87
2018-09-24T19:16:22.938Z,100649.01
2018-09-24T19:19:33.786Z,100645.56
2018-09-24T19:22:44.652Z,100652.75
2018-09-24T19:25:55.618Z,100658.08
2018-09-24T19:29:06.222Z,100661.62
2018-09-24T19:32:16.929Z,100664.25
2018-09-24T19:35:28.397Z,100667.83
2018-09-24T19:38:39.089Z,100670.78
2018-09-24T19:41:49.814Z,100667.33
2018-09-24T19:45:00.500Z,100669.43
2018-09-24T19:48:11.863Z,100668.02
2018-09-24T19:51:22.568Z,100671.08
2018-09-24T19:54:33.298Z,100673.50
2018-09-24T19:57:44.182Z,100675.96
2018-09-24T20:00:55.695Z,100678.00
2018-09-24T20:04:06.318Z,100686.78
2018-09-24T20:07:17.869Z,100685.72
2018-09-24T20:10:28.536Z,100685.91
2018-09-24T20:13:40.141Z,100686.09
2018-09-24T20:16:50.716Z,100685.54
2018-09-24T20:20:01.387Z,100688.84
2018-09-24T20:23:12.176Z,100689.07
2018-09-24T20:26:23.059Z,100700.43
2018-09-24T20:29:33.690Z,100705.92
2018-09-24T20:32:45.287Z,100705.20
2018-09-24T20:35:55.881Z,100705.95
2018-09-24T20:39:06.700Z,100705.06
2018-09-24T20:42:18.113Z,100704.50
2018-09-24T20:45:28.749Z,100712.59
2018-09-24T20:48:39.538Z,100715.52
2018-09-24T20:51:50.189Z,100716.09
2018-09-24T20:55:00.838Z,100724.31
2018-09-24T20:58:11.589Z,100716.65
2018-09-24T21:01:22.389Z,100729.96
2018-09-24T21:04:33.008Z,100727.23
2018-09-24T21:07:43.690Z,100732.18
2018-09-24T21:25:37.885Z,100748.59
2018-09-24T21:28:48.613Z,100746.22
2018-09-24T21:39:57.566Z,100760.21
2018-09-24T21:43:09.191Z,100762.96
2018-09-24T21:46:20.986Z,100759.50
2018-09-24T21:49:32.228Z,100758.59
2018-09-24T21:52:42.894Z,100765.17
2018-09-24T21:55:53.627Z,100768.77
2018-09-24T22:02:27.197Z,100772.59
2018-09-24T22:05:38.150Z,100773.84
2018-09-24T22:08:48.817Z,100775.84
2018-09-24T22:11:59.505Z,100773.64
2018-09-24T22:15:10.177Z,100782.73
2018-09-24T22:18:21.030Z,100785.09
2018-09-24T22:21:31.652Z,100787.45
2018-09-24T22:24:42.445Z,100786.54
2018-09-24T22:27:53.044Z,100783.42
2018-09-24T22:31:03.864Z,100793.97
2018-09-24T22:34:14.391Z,100787.55
2018-09-24T22:37:25.117Z,100792.83
2018-09-24T22:40:35.841Z,100795.68
2018-09-24T22:43:46.437Z,100790.95
2018-09-24T22:46:57.222Z,100802.75
2018-09-24T22:50:07.831Z,100801.84
2018-09-24T22:53:18.695Z,100805.44
2018-09-24T22:56:29.391Z,100797.25
2018-09-24T22:59:40.154Z,100806.37
2018-09-24T23:02:50.806Z,100807.82
2018-09-24T23:06:01.535Z,100798.31
2018-09-24T23:09:13.181Z,100802.34
2018-09-24T23:12:24.007Z,100800.30
2018-09-24T23:15:34.734Z,100794.70
2018-09-24T23:18:45.326Z,100804.89
2018-09-24T23:21:56.077Z,100806.37
2018-09-24T23:25:07.018Z,100805.43
2018-09-24T23:28:17.848Z,100813.39
2018-09-24T23:31:28.453Z,100817.42
2018-09-24T23:34:39.259Z,100803.10
2018-09-24T23:37:50.089Z,100810.37
2018-09-24T23:41:00.783Z,100807.50
2018-09-24T23:44:11.646Z,100804.74
2018-09-24T23:47:22.292Z,100814.35
2018-09-24T23:50:32.987Z,100827.63
2018-09-24T23:53:43.642Z,100822.36
2018-09-24T23:56:54.513Z,100829.27
